Latest Weather Observations for Nuriootpa

IDS60901

Issued at 8:51 am CST Monday 24 April 2017 (issued every 10 minutes, with the page automatically refreshed every 10 minutes)

About weather observations | Map of Adelaide area stations | Latest observations for Adelaide area | Other Formats
Station Details ID: 023373 Name: NURIOOTPA PIRSA Lat: -34.48 Lon: 139.01 Height: 275.0 m
Data from the previous 72 hours. | See also: Recent months at Nuriootpa
Date/Time
CST
Temp
°C
App
Temp
°C
Dew
Point
°C
Rel
Hum
%
Delta-T
°C
Wind Press
QNH
hPa
Press
MSL
hPa
Rain since
9am
mm
Dir  Spd
km/h
Gust
km/h
Spd
kts
Gust
kts
24/08:30am 15.5 14.5 14.6 94 0.5 NE 13 17 7 9 1018.3 1017.9 6.6
24/08:00am 16.0 15.7 14.4 90 0.9 NNE 9 13 5 7 1018.3 1017.9 3.0
24/07:30am 15.7 15.4 14.3 91 0.8 NE 9 11 5 6 1018.1 1017.7 3.0
24/07:00am 15.4 15.3 13.8 90 0.9 E 7 11 4 6 1018.1 1017.7 3.0
24/06:30am 15.7 15.2 13.8 88 1.1 E 9 17 5 9 1017.8 1017.5 3.0
24/06:00am 15.9 15.5 14.0 88 1.1 E 9 13 5 7 1017.9 1017.6 3.0
24/05:30am 15.8 15.4 14.1 90 1.0 E 9 11 5 6 1018.2 1017.8 3.0
24/05:00am 15.6 15.8 14.2 91 0.8 E 6 13 3 7 1018.2 1017.8 3.0
24/04:30am 15.5 15.5 14.1 91 0.8 E 7 11 4 6 1018.1 1017.7 3.0
24/04:00am 15.5 14.7 14.1 91 0.8 E 11 17 6 9 1018.3 1017.9 3.0
24/03:30am 15.4 14.2 14.0 91 0.8 E 13 22 7 12 1018.2 1017.8 3.0
24/03:00am 15.3 14.5 13.9 91 0.8 E 11 19 6 10 1018.9 1018.5 3.0
24/02:30am 15.3 15.3 14.1 92 0.7 ESE 7 13 4 7 1019.2 1018.8 3.0
24/02:00am 15.8 16.4 14.2 90 0.9 ESE 4 7 2 4 1019.7 1019.3 1.8
24/01:30am 16.1 16.2 14.4 90 1.0 S 7 9 4 5 1019.9 1019.5 1.6
24/01:00am 16.7 18.2 14.6 87 1.2 CALM 0 0 0 0 1020.1 1019.7 0.6
24/12:30am 17.3 17.2 13.4 78 2.2 E 6 7 3 4 1020.3 1019.9 0.2
24/12:00am 17.7 16.6 13.1 74 2.6 ESE 11 17 6 9 1020.2 1019.8 0.2
 
Date/Time
CST
Temp
°C
App
Temp
°C
Dew
Point
°C
Rel
Hum
%
Delta-T
°C
Wind Press
QNH
hPa
Press
MSL
hPa
Rain since
9am
mm
Dir  Spd
km/h
Gust
km/h
Spd
kts
Gust
kts
23/11:30pm 18.5 16.8 12.3 67 3.5 E 13 22 7 12 1020.5 1020.1 0.0
23/11:00pm 18.5 17.6 12.7 69 3.3 E 9 13 5 7 1020.5 1020.1 0.0
23/10:30pm 19.1 18.1 12.4 65 3.8 E 9 17 5 9 1020.7 1020.4 0.0
23/10:00pm 19.4 18.0 12.3 63 4.0 E 11 17 6 9 1021.1 1020.8 0.0
23/09:30pm 19.2 18.0 12.9 67 3.6 E 11 17 6 9 1021.1 1020.8 0.0
23/09:00pm 19.2 19.0 13.5 69 3.3 ESE 7 13 4 7 1021.3 1021.0 0.0
23/08:30pm 19.5 18.8 13.2 67 3.6 ESE 9 13 5 7 1021.2 1020.9 0.0
23/08:00pm 19.2 19.0 13.7 70 3.2 E 7 11 4 6 1021.2 1020.9 0.0
23/07:30pm 19.0 19.2 14.2 73 2.8 E 6 9 3 5 1021.3 1021.0 0.0
23/07:00pm 19.5 19.1 14.0 70 3.2 E 9 13 5 7 1021.0 1020.7 0.0
23/06:30pm 19.7 19.3 14.0 69 3.3 ESE 9 13 5 7 1021.0 1020.7 0.0
23/06:00pm 19.9 19.9 14.1 69 3.4 ESE 7 11 4 6 1020.9 1020.6 0.0
23/05:30pm 20.3 20.2 13.8 66 3.8 ESE 7 9 4 5 1020.8 1020.5 0.0
23/05:00pm 20.6 19.9 13.3 63 4.2 ESE 9 13 5 7 1020.7 1020.4 0.0
23/04:30pm 20.9 20.0 12.7 59 4.7 ESE 9 17 5 9 1020.7 1020.4 0.0
23/04:00pm 21.4 20.1 12.5 57 5.1 NE 11 17 6 9 1020.6 1020.3 0.0
23/03:30pm 21.7 20.1 12.8 57 5.1 NE 13 20 7 11 1020.6 1020.3 0.0
23/03:00pm 21.9 20.3 12.7 56 5.3 NNE 13 22 7 12 1020.6 1020.3 0.0
23/02:30pm 22.1 20.0 12.3 53 5.6 ENE 15 22 8 12 1020.7 1020.4 0.0
23/02:00pm 22.2 20.0 12.0 52 5.8 ENE 15 24 8 13 1020.8 1020.5 0.0
23/01:30pm 22.4 20.5 12.9 55 5.5 E 15 26 8 14 1021.0 1020.7 0.0
23/01:00pm 21.3 18.9 12.8 58 4.9 ENE 17 28 9 15 1021.4 1021.1 0.0
23/12:30pm 20.7 18.5 12.2 58 4.8 ENE 15 22 8 12 1022.0 1021.6 0.0
23/12:00pm 20.5 17.8 11.8 57 4.9 E 17 28 9 15 1022.5 1022.1 0.0
23/11:30am 20.1 17.9 12.1 60 4.5 E 15 26 8 14 1022.8 1022.4 0.0
23/11:00am 19.6 16.9 11.7 60 4.4 ENE 17 24 9 13 1023.1 1022.7 0.0
23/10:30am 19.4 17.1 11.7 61 4.3 E 15 22 8 12 1023.3 1022.9 0.0
23/10:00am 18.8 16.4 11.4 62 4.1 E 15 22 8 12 1023.7 1023.4 0.0
23/09:30am 18.4 16.2 10.9 61 4.1 ESE 13 19 7 10 1023.7 1023.4 0.0
23/09:00am 17.3 15.6 11.1 67 3.4 E 11 17 6 9 1023.7 1023.4 0.0
23/08:30am 16.4 14.6 11.0 70 2.9 E 11 19 6 10 1023.6 1023.2 0.0
23/08:00am 15.4 14.1 11.1 75 2.3 E 9 15 5 8 1023.5 1023.1 0.0
23/07:30am 14.5 13.5 10.9 79 1.9 ESE 7 9 4 5 1023.3 1022.9 0.0
23/07:00am 13.6 12.8 11.0 84 1.4 ESE 6 9 3 5 1022.9 1022.5 0.0
23/06:30am 14.0 12.6 11.0 82 1.6 ESE 9 17 5 9 1022.5 1022.1 0.0
23/06:00am 13.6 12.2 11.0 84 1.4 ESE 9 15 5 8 1022.6 1022.2 0.0
23/05:30am 13.6 12.8 11.0 84 1.4 E 6 9 3 5 1022.5 1022.1 0.0
23/05:00am 13.9 12.9 11.1 83 1.5 ESE 7 13 4 7 1022.3 1021.9 0.0
23/04:30am 13.8 12.5 11.4 85 1.3 ENE 9 15 5 8 1022.3 1021.9 0.0
23/04:00am 14.1 12.5 11.5 84 1.4 ESE 11 17 6 9 1022.1 1021.7 0.0
23/03:30am 14.4 13.1 11.4 82 1.6 ESE 9 15 5 8 1022.0 1021.6 0.0
23/03:00am 14.4 12.1 11.8 84 1.4 E 15 26 8 14 1022.2 1021.8 0.0
23/02:30am 14.2 12.4 12.0 87 1.2 E 13 19 7 10 1022.4 1022.0 0.0
23/02:00am 14.3 12.5 12.1 87 1.2 ESE 13 24 7 13 1022.7 1022.3 0.0
23/01:30am 14.5 12.3 12.1 85 1.3 ESE 15 22 8 12 1022.7 1022.3 0.0
23/01:00am 14.6 12.4 12.0 84 1.4 ESE 15 20 8 11 1022.8 1022.4 0.0
23/12:30am 14.6 13.1 12.0 84 1.4 E 11 20 6 11 1023.1 1022.7 0.0
23/12:00am 14.7 13.2 11.8 83 1.6 ESE 11 20 6 11 1023.1 1022.7 0.0
 
Date/Time
CST
Temp
°C
App
Temp
°C
Dew
Point
°C
Rel
Hum
%
Delta-T
°C
Wind Press
QNH
hPa
Press
MSL
hPa
Rain since
9am
mm
Dir  Spd
km/h
Gust
km/h
Spd
kts
Gust
kts
22/11:30pm 14.9 13.1 12.0 83 1.6 ESE 13 22 7 12 1023.1 1022.7 0.0
22/11:00pm 15.0 13.3 12.3 84 1.5 ESE 13 19 7 10 1023.3 1022.9 0.0
22/10:30pm 15.1 13.4 12.6 85 1.4 ESE 13 19 7 10 1023.4 1023.0 0.0
22/10:00pm 15.3 14.1 12.8 85 1.4 SE 11 20 6 11 1023.4 1023.0 0.0
22/09:30pm 15.7 14.0 12.5 81 1.8 SE 13 19 7 10 1023.4 1023.0 0.0
22/09:00pm 16.0 14.3 12.4 79 2.0 SE 13 20 7 11 1023.2 1022.8 0.0
22/08:30pm 16.3 14.6 12.5 78 2.1 SE 13 19 7 10 1023.0 1022.6 0.0
22/08:00pm 16.6 15.8 12.9 79 2.1 SE 9 13 5 7 1022.9 1022.5 0.0
22/07:30pm 16.5 16.3 13.1 80 1.9 E 6 11 3 6 1022.7 1022.3 0.0
22/07:00pm 16.7 16.4 13.2 80 2.0 ESE 7 11 4 6 1022.6 1022.2 0.0
22/06:30pm 16.8 16.6 13.5 81 1.9 E 7 9 4 5 1022.4 1022.0 0.0
22/06:00pm 17.5 17.5 13.7 78 2.2 ENE 6 7 3 4 1022.2 1021.8 0.0
22/05:30pm 18.9 18.8 13.3 70 3.2 ENE 6 11 3 6 1022.0 1021.6 0.0
22/05:00pm 19.3 18.6 13.2 68 3.5 NE 9 13 5 7 1021.7 1021.4 0.0
22/04:30pm 19.7 18.1 12.9 65 3.9 NE 13 15 7 8 1021.7 1021.4 0.0
22/04:00pm 20.2 18.6 12.8 62 4.2 NE 13 19 7 10 1021.7 1021.4 0.0
22/03:30pm 20.5 19.2 12.6 60 4.5 ENE 11 22 6 12 1021.5 1021.2 0.0
22/03:00pm 21.5 20.4 13.0 58 4.9 ENE 11 17 6 9 1021.6 1021.3 0.0
22/02:30pm 21.2 20.0 12.8 58 4.8 NNE 11 17 6 9 1021.7 1021.4 0.0
22/02:00pm 20.6 19.5 13.1 62 4.3 NE 11 17 6 9 1022.0 1021.6 0.0
22/01:30pm 19.9 18.0 12.9 64 4.0 NNE 15 20 8 11 1022.2 1021.8 0.0
22/01:00pm 20.2 18.9 12.4 61 4.4 E 11 17 6 9 1022.4 1022.0 0.0
22/12:30pm 20.2 18.7 13.0 63 4.1 ESE 13 20 7 11 1022.7 1022.3 0.0
22/12:00pm 19.2 17.5 12.5 65 3.8 E 13 20 7 11 1023.2 1022.8 0.0
22/11:30am 18.9 16.9 12.7 67 3.5 E 15 20 8 11 1023.6 1023.2 0.0
22/11:00am 18.0 16.1 11.9 67 3.4 ESE 13 20 7 11 1024.0 1023.7 0.0
22/10:30am 18.4 17.2 12.7 69 3.2 E 11 15 6 8 1024.3 1024.0 0.0
22/10:00am 17.9 17.0 12.6 71 3.0 E 9 13 5 7 1024.4 1024.1 0.0
22/09:30am 17.6 16.9 13.2 75 2.5 SE 9 13 5 7 1024.3 1024.0 0.0
22/09:00am 16.3 14.6 12.5 78 2.1 ESE 13 17 7 9 1024.2 1023.9 0.0
22/08:30am 15.7 14.0 12.6 82 1.7 ESE 13 19 7 10 1024.0 1023.7 0.0
22/08:00am 14.8 13.9 12.6 87 1.2 ESE 9 13 5 7 1023.9 1023.6 0.0
22/07:30am 14.1 13.6 12.5 90 0.9 NE 7 9 4 5 1023.6 1023.2 0.0
22/07:00am 14.1 13.4 12.1 88 1.1 ENE 7 11 4 6 1023.3 1022.9 0.0
22/06:30am 13.6 13.1 11.9 89 0.9 E 6 9 3 5 1023.0 1022.6 0.0
22/06:00am 12.9 13.6 12.2 95 0.4 CALM 0 0 0 0 1023.0 1022.6 0.0
22/05:30am 12.8 12.2 12.2 96 0.3 NNE 7 9 4 5 1022.6 1022.2 0.0
22/05:00am 12.3 12.1 11.9 97 0.2 N 4 6 2 3 1022.5 1022.1 0.0
22/04:30am 11.9 11.2 11.3 96 0.3 NNE 6 7 3 4 1022.4 1022.0 0.0
22/04:00am 12.1 11.2 11.5 96 0.3 NNE 7 11 4 6 1022.3 1021.9 0.0
22/03:30am 11.8 11.5 11.6 99 0.1 ESE 4 7 2 4 1022.1 1021.7 0.0
22/03:00am 11.5 10.7 11.1 97 0.2 N 6 7 3 4 1022.4 1022.0 0.0
22/02:30am 11.6 12.0 11.2 97 0.2 CALM 0 0 0 0 1022.6 1022.2 0.0
22/02:00am 10.4 10.5 10.0 97 0.2 CALM 0 0 0 0 1022.7 1022.3 0.0
22/01:30am 10.4 10.3 9.6 95 0.4 CALM 0 0 0 0 1022.7 1022.3 0.0
22/01:00am 10.5 10.6 10.1 97 0.2 CALM 0 0 0 0 1022.9 1022.5 0.0
22/12:30am 10.7 10.8 10.1 96 0.3 CALM 0 0 0 0 1022.8 1022.4 0.0
22/12:00am 11.2 11.0 10.4 95 0.4 SE 2 6 1 3 1022.9 1022.5 0.0
 
Date/Time
CST
Temp
°C
App
Temp
°C
Dew
Point
°C
Rel
Hum
%
Delta-T
°C
Wind Press
QNH
hPa
Press
MSL
hPa
Rain since
9am
mm
Dir  Spd
km/h
Gust
km/h
Spd
kts
Gust
kts
21/11:30pm 12.3 11.7 11.7 96 0.3 SSE 6 7 3 4 1022.9 1022.5 0.0
21/11:00pm 12.4 12.2 11.7 95 0.4 SSE 4 9 2 5 1023.1 1022.7 0.0
21/10:30pm 12.6 12.1 12.0 96 0.3 ESE 6 7 3 4 1023.2 1022.8 0.0
21/10:00pm 12.5 12.6 11.4 93 0.6 SE 2 6 1 3 1023.3 1022.9 0.0
21/09:30pm 12.4 12.5 11.5 94 0.5 ESE 2 6 1 3 1023.0 1022.6 0.0
21/09:00pm 12.9 13.5 11.8 93 0.6 CALM 0 0 0 0 1022.9 1022.5 0.0
21/08:30pm 13.0 13.2 11.7 92 0.7 ESE 2 7 1 4 1022.7 1022.3 0.0
21/08:00pm 13.5 14.2 12.2 92 0.7 CALM 0 0 0 0 1022.5 1022.1 0.0
21/07:30pm 14.4 13.9 12.0 85 1.3 ESE 6 9 3 5 1022.4 1022.0 0.0
21/07:00pm 15.3 14.6 12.0 81 1.8 SW 7 9 4 5 1022.1 1021.7 0.0
21/06:30pm 15.6 14.3 11.4 76 2.3 WSW 9 11 5 6 1021.6 1021.3 0.0
21/06:00pm 17.4 15.3 11.2 67 3.4 WSW 13 15 7 8 1021.3 1021.0 0.0
21/05:30pm 18.5 17.5 12.3 67 3.5 SW 9 13 5 7 1021.0 1020.7 0.0
21/05:00pm 19.5 18.2 12.4 63 4.0 SW 11 15 6 8 1020.9 1020.6 0.0
21/04:30pm 19.2 18.2 12.3 64 3.9 W 9 13 5 7 1020.9 1020.6 0.0
21/04:00pm 20.1 17.8 11.7 58 4.7 W 15 20 8 11 1020.8 1020.5 0.0
21/03:30pm 20.5 19.2 12.4 59 4.6 W 11 15 6 8 1020.6 1020.3 0.0
21/03:00pm 19.7 18.5 12.9 65 3.9 SW 11 17 6 9 1020.5 1020.1 0.0
21/02:30pm 20.3 19.2 13.0 63 4.2 W 11 17 6 9 1020.4 1020.0 0.0
21/02:00pm 20.2 18.9 13.6 66 3.8 WSW 13 17 7 9 1020.7 1020.4 0.0
21/01:30pm 19.7 18.7 14.6 72 3.0 W 13 22 7 12 1021.1 1020.8 0.0
21/01:00pm 19.9 18.6 14.8 72 3.0 SW 15 20 8 11 1021.2 1020.9 0.0
21/12:30pm 19.3 18.7 14.5 74 2.8 WSW 11 17 6 9 1021.5 1021.2 0.0
21/12:00pm 19.3 18.0 14.9 75 2.6 WSW 15 20 8 11 1022.0 1021.6 0.0
21/11:30am 18.7 17.9 15.0 79 2.2 WSW 13 20 7 11 1022.3 1021.9 0.0
21/11:00am 18.1 17.1 15.7 86 1.4 WSW 15 22 8 12 1022.4 1022.0 0.0
21/10:30am 17.6 17.2 16.3 92 0.8 W 13 20 7 11 1022.6 1022.2 0.0
21/10:00am 17.4 17.8 16.2 93 0.7 WSW 9 15 5 8 1022.6 1022.2 0.0
21/09:30am 17.6 17.7 16.4 93 0.7 WNW 11 15 6 8 1022.6 1022.2 0.0
21/09:00am 17.5 17.6 16.5 94 0.6 WNW 11 15 6 8 1022.6 1022.2 10.4

Latest Capital City Observations: Canberra | Sydney | Melbourne | Brisbane | Adelaide | Perth | Hobart | Darwin

Other Formats:

Comma delimited format used in spreadsheet applications
http://www.bom.gov.au/fwo/IDS60901/IDS60901.94681.axf

JavaScript Object Notation format (JSON) in row-major order
http://www.bom.gov.au/fwo/IDS60901/IDS60901.94681.json